Hauptseite
METAR-TAF:

METAR-TAF

Flughäfen :

El Salvador, El Salvador

Flughafen San Salvador

Breite: 13-26N, Länge: 089-03W, Höhe: 25 m

Beobachtung

Neuester Wetterbericht von vor 11 Minuten, um 22:50 UTC
Wind 3 kt aus Südwest
Temperatur 29°C
Luftfeuchtigkeit 66%
Luftdruck 1010 hPa
Sichtweite 10 km oder mehr
Leicht bewölkt in der Höhe von 7500 ft

METAR: MSLP 172250Z 22003KT 9999 FEW075 29/22 Q1009 A2982 NOSIG

Zeit: 17:01 (23:01 UTC)

Prognose

Neuester Wetterbericht von vor 7 Stunden und 36 Minuten, um 15:25 UTC
Gültige Prognose vom 17 um 18 UTC bis 18 um 18 UTC
Wind 8 kt aus Südwest
Sichtweite 10 km oder mehr
Leicht bewölkt in der Höhe von 6000 ft
Ab 18 um 0000 UTC
Wind 5 kt aus Nordost
Sichtweite 10 km oder mehr
keine Wolken unter 1500 m und keine Kumulonimbus oder Gewitterwolken

TAF: MSLP 171525Z 1718/1818 22008KT 9999 FEW060 TX33/1718Z TN21/1810Z FM180000 05005KT CAVOK

Wetterbeobachtungen und Prognosen von mehr als 4000 Flughäfen (METAR und TAF Bericht).

Die verfügbaren Stationen werden durch gelbe und rote Markierungen auf der Karte dargestellt.

Führen Sie die Maus auf sie, um den Namen der Station zu sehen.

Darauf klicken, um die Beobachtung von Wetterbeobachtungen und Prognosen zu sehen.

Um die Karte zu ändern : klicken Sie auf den grünen Tasten mit einem schwarzen Kreuz Zum Vergrößern, auf den grünen Button mit einem Gedankenstrich zu verkleinern, oder auf die grünen Pfeile für benachbarte Karten.


METAR-TAF: